sensor_id;sensor_type;location;lat;lon;timestamp;P1;durP1;ratioP1;P2;durP2;ratioP2
29210;SDS011;16250;49.932;10.980;2023-11-22T00:00:18;10.45;;;8.77;;
29210;SDS011;16250;49.932;10.980;2023-11-22T00:02:46;11.10;;;9.90;;
29210;SDS011;16250;49.932;10.980;2023-11-22T00:05:12;10.00;;;9.00;;
29210;SDS011;16250;49.932;10.980;2023-11-22T00:07:37;12.27;;;9.73;;
29210;SDS011;16250;49.932;10.980;2023-11-22T00:10:03;11.18;;;9.50;;
29210;SDS011;16250;49.932;10.980;2023-11-22T00:12:29;11.18;;;8.95;;
29210;SDS011;16250;49.932;10.980;2023-11-22T00:15:01;9.75;;;8.40;;
29210;SDS011;16250;49.932;10.980;2023-11-22T00:17:29;10.20;;;9.10;;
29210;SDS011;16250;49.932;10.980;2023-11-22T00:19:54;10.88;;;9.15;;
29210;SDS011;16250;49.932;10.980;2023-11-22T00:22:20;11.48;;;8.70;;
29210;SDS011;16250;49.932;10.980;2023-11-22T00:24:46;10.25;;;9.02;;
29210;SDS011;16250;49.932;10.980;2023-11-22T00:27:15;10.38;;;9.38;;
29210;SDS011;16250;49.932;10.980;2023-11-22T00:29:41;10.88;;;8.77;;
29210;SDS011;16250;49.932;10.980;2023-11-22T00:32:06;10.32;;;8.68;;
29210;SDS011;16250;49.932;10.980;2023-11-22T00:34:32;11.05;;;7.63;;
29210;SDS011;16250;49.932;10.980;2023-11-22T00:36:58;8.27;;;7.40;;
29210;SDS011;16250;49.932;10.980;2023-11-22T00:39:23;8.07;;;7.28;;
29210;SDS011;16250;49.932;10.980;2023-11-22T00:41:49;9.80;;;7.18;;
29210;SDS011;16250;49.932;10.980;2023-11-22T00:44:14;10.07;;;7.50;;
29210;SDS011;16250;49.932;10.980;2023-11-22T00:46:40;8.00;;;6.70;;
29210;SDS011;16250;49.932;10.980;2023-11-22T00:49:05;10.05;;;8.43;;
29210;SDS011;16250;49.932;10.980;2023-11-22T00:51:32;8.13;;;6.65;;
29210;SDS011;16250;49.932;10.980;2023-11-22T00:53:58;10.05;;;7.38;;
29210;SDS011;16250;49.932;10.980;2023-11-22T00:56:24;8.25;;;7.45;;
29210;SDS011;16250;49.932;10.980;2023-11-22T00:58:50;9.60;;;7.95;;
29210;SDS011;16250;49.932;10.980;2023-11-22T01:01:16;9.38;;;7.95;;
29210;SDS011;16250;49.932;10.980;2023-11-22T01:03:43;9.30;;;8.38;;
29210;SDS011;16250;49.932;10.980;2023-11-22T01:06:08;8.57;;;7.70;;
29210;SDS011;16250;49.932;10.980;2023-11-22T01:08:34;8.30;;;7.25;;
29210;SDS011;16250;49.932;10.980;2023-11-22T01:11:00;8.48;;;7.57;;
29210;SDS011;16250;49.932;10.980;2023-11-22T01:13:28;9.43;;;7.85;;
29210;SDS011;16250;49.932;10.980;2023-11-22T01:15:54;8.43;;;7.53;;
29210;SDS011;16250;49.932;10.980;2023-11-22T01:18:19;9.93;;;8.30;;
29210;SDS011;16250;49.932;10.980;2023-11-22T01:20:45;9.48;;;8.35;;
29210;SDS011;16250;49.932;10.980;2023-11-22T01:23:10;9.23;;;8.10;;
29210;SDS011;16250;49.932;10.980;2023-11-22T01:25:36;8.68;;;7.70;;
29210;SDS011;16250;49.932;10.980;2023-11-22T01:28:01;8.60;;;7.70;;
29210;SDS011;16250;49.932;10.980;2023-11-22T01:30:27;8.38;;;7.45;;
29210;SDS011;16250;49.932;10.980;2023-11-22T01:32:56;8.40;;;7.25;;
29210;SDS011;16250;49.932;10.980;2023-11-22T01:35:22;9.32;;;8.32;;
29210;SDS011;16250;49.932;10.980;2023-11-22T01:37:48;7.82;;;6.97;;
29210;SDS011;16250;49.932;10.980;2023-11-22T01:40:14;9.90;;;7.57;;
29210;SDS011;16250;49.932;10.980;2023-11-22T01:42:40;8.48;;;7.57;;
29210;SDS011;16250;49.932;10.980;2023-11-22T01:45:06;8.35;;;7.20;;
29210;SDS011;16250;49.932;10.980;2023-11-22T01:47:32;7.22;;;6.53;;
29210;SDS011;16250;49.932;10.980;2023-11-22T01:49:58;8.20;;;6.72;;
29210;SDS011;16250;49.932;10.980;2023-11-22T01:52:23;8.90;;;7.28;;
29210;SDS011;16250;49.932;10.980;2023-11-22T01:54:49;7.97;;;7.00;;
29210;SDS011;16250;49.932;10.980;2023-11-22T01:57:14;7.47;;;6.72;;
29210;SDS011;16250;49.932;10.980;2023-11-22T01:59:40;7.70;;;6.90;;
29210;SDS011;16250;49.932;10.980;2023-11-22T02:02:07;8.13;;;6.80;;
29210;SDS011;16250;49.932;10.980;2023-11-22T02:04:32;6.90;;;6.20;;
29210;SDS011;16250;49.932;10.980;2023-11-22T02:06:57;8.07;;;6.45;;
29210;SDS011;16250;49.932;10.980;2023-11-22T02:09:23;8.38;;;6.20;;
29210;SDS011;16250;49.932;10.980;2023-11-22T02:11:49;7.40;;;6.47;;
29210;SDS011;16250;49.932;10.980;2023-11-22T02:14:15;7.35;;;6.38;;
29210;SDS011;16250;49.932;10.980;2023-11-22T02:16:40;8.93;;;7.45;;
29210;SDS011;16250;49.932;10.980;2023-11-22T02:19:07;12.32;;;6.47;;
29210;SDS011;16250;49.932;10.980;2023-11-22T02:21:39;8.45;;;6.88;;
29210;SDS011;16250;49.932;10.980;2023-11-22T02:24:05;7.97;;;7.18;;
29210;SDS011;16250;49.932;10.980;2023-11-22T02:26:32;8.07;;;7.28;;
29210;SDS011;16250;49.932;10.980;2023-11-22T02:28:58;7.97;;;7.18;;
29210;SDS011;16250;49.932;10.980;2023-11-22T02:31:24;8.40;;;7.57;;
29210;SDS011;16250;49.932;10.980;2023-11-22T02:33:50;10.07;;;8.32;;
29210;SDS011;16250;49.932;10.980;2023-11-22T02:36:15;10.57;;;9.00;;
29210;SDS011;16250;49.932;10.980;2023-11-22T02:38:41;9.32;;;8.23;;
29210;SDS011;16250;49.932;10.980;2023-11-22T02:41:07;10.10;;;9.10;;
29210;SDS011;16250;49.932;10.980;2023-11-22T02:43:34;11.98;;;10.77;;
29210;SDS011;16250;49.932;10.980;2023-11-22T02:46:00;12.32;;;11.10;;
29210;SDS011;16250;49.932;10.980;2023-11-22T02:48:26;13.07;;;11.88;;
29210;SDS011;16250;49.932;10.980;2023-11-22T02:50:52;15.27;;;12.68;;
29210;SDS011;16250;49.932;10.980;2023-11-22T02:53:19;16.45;;;12.98;;
29210;SDS011;16250;49.932;10.980;2023-11-22T02:55:45;14.05;;;12.60;;
29210;SDS011;16250;49.932;10.980;2023-11-22T02:58:10;14.90;;;13.15;;
29210;SDS011;16250;49.932;10.980;2023-11-22T03:00:37;13.75;;;12.25;;
29210;SDS011;16250;49.932;10.980;2023-11-22T03:03:05;14.82;;;13.23;;
29210;SDS011;16250;49.932;10.980;2023-11-22T03:05:35;14.60;;;13.05;;
29210;SDS011;16250;49.932;10.980;2023-11-22T03:08:02;15.48;;;13.85;;
29210;SDS011;16250;49.932;10.980;2023-11-22T03:10:27;15.13;;;13.63;;
29210;SDS011;16250;49.932;10.980;2023-11-22T03:12:55;16.25;;;12.80;;
29210;SDS011;16250;49.932;10.980;2023-11-22T03:15:20;15.10;;;13.27;;
29210;SDS011;16250;49.932;10.980;2023-11-22T03:17:45;17.35;;;13.70;;
29210;SDS011;16250;49.932;10.980;2023-11-22T03:20:11;17.90;;;14.98;;
29210;SDS011;16250;49.932;10.980;2023-11-22T03:22:36;15.20;;;13.43;;
29210;SDS011;16250;49.932;10.980;2023-11-22T03:25:02;16.70;;;13.80;;
29210;SDS011;16250;49.932;10.980;2023-11-22T03:27:29;15.85;;;13.55;;
29210;SDS011;16250;49.932;10.980;2023-11-22T03:29:55;15.00;;;13.43;;
29210;SDS011;16250;49.932;10.980;2023-11-22T03:32:21;15.50;;;13.85;;
29210;SDS011;16250;49.932;10.980;2023-11-22T03:34:47;16.25;;;14.55;;
29210;SDS011;16250;49.932;10.980;2023-11-22T03:37:12;18.27;;;14.77;;
29210;SDS011;16250;49.932;10.980;2023-11-22T03:39:38;16.60;;;14.80;;
29210;SDS011;16250;49.932;10.980;2023-11-22T03:42:03;16.15;;;13.85;;
29210;SDS011;16250;49.932;10.980;2023-11-22T03:44:29;16.92;;;15.13;;
29210;SDS011;16250;49.932;10.980;2023-11-22T03:46:55;16.95;;;15.23;;
29210;SDS011;16250;49.932;10.980;2023-11-22T03:49:21;18.33;;;15.23;;
29210;SDS011;16250;49.932;10.980;2023-11-22T03:51:46;19.05;;;16.70;;
29210;SDS011;16250;49.932;10.980;2023-11-22T03:54:12;18.27;;;15.88;;
29210;SDS011;16250;49.932;10.980;2023-11-22T03:56:37;17.38;;;15.48;;
29210;SDS011;16250;49.932;10.980;2023-11-22T03:59:03;17.42;;;15.63;;
29210;SDS011;16250;49.932;10.980;2023-11-22T04:01:28;18.08;;;16.17;;
29210;SDS011;16250;49.932;10.980;2023-11-22T04:03:54;20.63;;;17.55;;
29210;SDS011;16250;49.932;10.980;2023-11-22T04:06:19;19.92;;;16.77;;
29210;SDS011;16250;49.932;10.980;2023-11-22T04:08:45;19.38;;;15.77;;
29210;SDS011;16250;49.932;10.980;2023-11-22T04:11:11;17.95;;;15.90;;
29210;SDS011;16250;49.932;10.980;2023-11-22T04:13:37;17.75;;;15.85;;
29210;SDS011;16250;49.932;10.980;2023-11-22T04:16:03;17.17;;;14.98;;
29210;SDS011;16250;49.932;10.980;2023-11-22T04:18:29;17.42;;;15.60;;
29210;SDS011;16250;49.932;10.980;2023-11-22T04:20:55;17.40;;;14.60;;
29210;SDS011;16250;49.932;10.980;2023-11-22T04:23:23;17.17;;;14.95;;
29210;SDS011;16250;49.932;10.980;2023-11-22T04:25:48;18.38;;;15.93;;
29210;SDS011;16250;49.932;10.980;2023-11-22T04:28:14;19.58;;;15.82;;
29210;SDS011;16250;49.932;10.980;2023-11-22T04:30:40;19.17;;;15.50;;
29210;SDS011;16250;49.932;10.980;2023-11-22T04:33:05;17.55;;;15.75;;
29210;SDS011;16250;49.932;10.980;2023-11-22T04:35:31;17.38;;;13.52;;
29210;SDS011;16250;49.932;10.980;2023-11-22T04:38:01;17.77;;;15.40;;
29210;SDS011;16250;49.932;10.980;2023-11-22T04:40:26;18.98;;;17.05;;
29210;SDS011;16250;49.932;10.980;2023-11-22T04:42:51;19.45;;;16.48;;
29210;SDS011;16250;49.932;10.980;2023-11-22T04:45:17;17.90;;;16.10;;
29210;SDS011;16250;49.932;10.980;2023-11-22T04:47:42;20.95;;;16.80;;
29210;SDS011;16250;49.932;10.980;2023-11-22T04:50:08;18.23;;;15.88;;
29210;SDS011;16250;49.932;10.980;2023-11-22T04:52:34;19.45;;;16.38;;
29210;SDS011;16250;49.932;10.980;2023-11-22T04:55:00;19.50;;;17.42;;
29210;SDS011;16250;49.932;10.980;2023-11-22T04:57:25;18.50;;;16.58;;
29210;SDS011;16250;49.932;10.980;2023-11-22T04:59:51;18.80;;;16.40;;
29210;SDS011;16250;49.932;10.980;2023-11-22T05:02:17;18.15;;;15.80;;
29210;SDS011;16250;49.932;10.980;2023-11-22T05:04:42;17.25;;;15.40;;
29210;SDS011;16250;49.932;10.980;2023-11-22T05:07:08;18.70;;;16.67;;
29210;SDS011;16250;49.932;10.980;2023-11-22T05:09:34;17.83;;;15.93;;
29210;SDS011;16250;49.932;10.980;2023-11-22T05:11:59;16.75;;;14.95;;
29210;SDS011;16250;49.932;10.980;2023-11-22T05:14:25;17.92;;;16.02;;
29210;SDS011;16250;49.932;10.980;2023-11-22T05:16:51;19.13;;;16.02;;
29210;SDS011;16250;49.932;10.980;2023-11-22T05:19:17;18.50;;;16.50;;
29210;SDS011;16250;49.932;10.980;2023-11-22T05:21:42;20.10;;;16.63;;
29210;SDS011;16250;49.932;10.980;2023-11-22T05:24:08;21.75;;;18.70;;
29210;SDS011;16250;49.932;10.980;2023-11-22T05:26:34;20.58;;;18.13;;
29210;SDS011;16250;49.932;10.980;2023-11-22T05:28:59;23.27;;;18.92;;
29210;SDS011;16250;49.932;10.980;2023-11-22T05:31:24;23.48;;;20.33;;
29210;SDS011;16250;49.932;10.980;2023-11-22T05:33:50;21.83;;;19.48;;
29210;SDS011;16250;49.932;10.980;2023-11-22T05:36:15;24.13;;;20.42;;
29210;SDS011;16250;49.932;10.980;2023-11-22T05:38:42;28.88;;;21.67;;
29210;SDS011;16250;49.932;10.980;2023-11-22T05:41:07;26.52;;;23.55;;
29210;SDS011;16250;49.932;10.980;2023-11-22T05:43:33;26.30;;;21.77;;
29210;SDS011;16250;49.932;10.980;2023-11-22T05:46:01;24.02;;;21.42;;
29210;SDS011;16250;49.932;10.980;2023-11-22T05:48:29;28.73;;;24.13;;
29210;SDS011;16250;49.932;10.980;2023-11-22T05:50:55;29.08;;;24.38;;
29210;SDS011;16250;49.932;10.980;2023-11-22T05:53:20;27.42;;;22.50;;
29210;SDS011;16250;49.932;10.980;2023-11-22T05:55:46;27.02;;;21.92;;
29210;SDS011;16250;49.932;10.980;2023-11-22T05:58:15;29.42;;;24.00;;
29210;SDS011;16250;49.932;10.980;2023-11-22T06:00:47;28.88;;;22.50;;
29210;SDS011;16250;49.932;10.980;2023-11-22T06:03:13;30.33;;;25.98;;
29210;SDS011;16250;49.932;10.980;2023-11-22T06:05:38;29.00;;;22.85;;
29210;SDS011;16250;49.932;10.980;2023-11-22T06:08:04;27.83;;;23.85;;
29210;SDS011;16250;49.932;10.980;2023-11-22T06:10:30;33.40;;;27.63;;
29210;SDS011;16250;49.932;10.980;2023-11-22T06:12:55;28.33;;;23.98;;
29210;SDS011;16250;49.932;10.980;2023-11-22T06:15:21;27.85;;;24.08;;
29210;SDS011;16250;49.932;10.980;2023-11-22T06:17:47;29.30;;;22.80;;
29210;SDS011;16250;49.932;10.980;2023-11-22T06:20:13;27.98;;;23.90;;
29210;SDS011;16250;49.932;10.980;2023-11-22T06:22:39;27.23;;;22.33;;
29210;SDS011;16250;49.932;10.980;2023-11-22T06:25:08;27.88;;;22.70;;
29210;SDS011;16250;49.932;10.980;2023-11-22T06:27:36;26.80;;;22.55;;
29210;SDS011;16250;49.932;10.980;2023-11-22T06:30:02;23.77;;;21.00;;
29210;SDS011;16250;49.932;10.980;2023-11-22T06:32:28;24.75;;;21.35;;
29210;SDS011;16250;49.932;10.980;2023-11-22T06:34:54;23.73;;;21.15;;
29210;SDS011;16250;49.932;10.980;2023-11-22T06:37:19;25.45;;;21.42;;
29210;SDS011;16250;49.932;10.980;2023-11-22T06:39:45;26.75;;;22.23;;
29210;SDS011;16250;49.932;10.980;2023-11-22T06:42:11;24.00;;;20.88;;
29210;SDS011;16250;49.932;10.980;2023-11-22T06:44:36;23.20;;;20.73;;
29210;SDS011;16250;49.932;10.980;2023-11-22T06:47:02;25.35;;;21.13;;
29210;SDS011;16250;49.932;10.980;2023-11-22T06:49:27;25.42;;;21.20;;
29210;SDS011;16250;49.932;10.980;2023-11-22T06:51:53;25.90;;;22.33;;
29210;SDS011;16250;49.932;10.980;2023-11-22T06:54:19;23.70;;;20.73;;
29210;SDS011;16250;49.932;10.980;2023-11-22T06:56:45;25.48;;;22.23;;
29210;SDS011;16250;49.932;10.980;2023-11-22T06:59:10;25.10;;;21.90;;
29210;SDS011;16250;49.932;10.980;2023-11-22T07:01:36;23.58;;;20.35;;
29210;SDS011;16250;49.932;10.980;2023-11-22T07:04:01;25.35;;;22.73;;
29210;SDS011;16250;49.932;10.980;2023-11-22T07:06:29;23.10;;;20.60;;
29210;SDS011;16250;49.932;10.980;2023-11-22T07:08:54;23.17;;;19.67;;
29210;SDS011;16250;49.932;10.980;2023-11-22T07:11:22;21.25;;;18.88;;
29210;SDS011;16250;49.932;10.980;2023-11-22T07:13:48;21.40;;;19.08;;
29210;SDS011;16250;49.932;10.980;2023-11-22T07:16:13;20.38;;;18.17;;
29210;SDS011;16250;49.932;10.980;2023-11-22T07:18:40;21.20;;;17.50;;
29210;SDS011;16250;49.932;10.980;2023-11-22T07:21:05;18.67;;;16.67;;
29210;SDS011;16250;49.932;10.980;2023-11-22T07:23:31;19.08;;;16.65;;
29210;SDS011;16250;49.932;10.980;2023-11-22T07:25:56;18.50;;;16.30;;
29210;SDS011;16250;49.932;10.980;2023-11-22T07:28:21;17.90;;;16.00;;
29210;SDS011;16250;49.932;10.980;2023-11-22T07:30:47;18.45;;;16.55;;
29210;SDS011;16250;49.932;10.980;2023-11-22T07:33:13;17.90;;;16.00;;
29210;SDS011;16250;49.932;10.980;2023-11-22T07:35:40;16.38;;;14.63;;
29210;SDS011;16250;49.932;10.980;2023-11-22T07:38:05;14.65;;;13.07;;
29210;SDS011;16250;49.932;10.980;2023-11-22T07:40:33;15.23;;;13.63;;
29210;SDS011;16250;49.932;10.980;2023-11-22T07:42:59;15.10;;;13.50;;
29210;SDS011;16250;49.932;10.980;2023-11-22T07:45:25;14.07;;;12.68;;
29210;SDS011;16250;49.932;10.980;2023-11-22T07:47:50;14.30;;;12.82;;
29210;SDS011;16250;49.932;10.980;2023-11-22T07:50:18;15.40;;;13.25;;
29210;SDS011;16250;49.932;10.980;2023-11-22T07:52:45;14.30;;;12.93;;
29210;SDS011;16250;49.932;10.980;2023-11-22T07:55:11;15.38;;;12.75;;
29210;SDS011;16250;49.932;10.980;2023-11-22T07:57:39;14.73;;;13.25;;
29210;SDS011;16250;49.932;10.980;2023-11-22T08:00:06;13.45;;;12.05;;
29210;SDS011;16250;49.932;10.980;2023-11-22T08:02:38;14.05;;;12.55;;
29210;SDS011;16250;49.932;10.980;2023-11-22T08:05:08;15.00;;;13.38;;
29210;SDS011;16250;49.932;10.980;2023-11-22T08:07:34;14.30;;;12.07;;
29210;SDS011;16250;49.932;10.980;2023-11-22T08:10:03;13.05;;;11.60;;
29210;SDS011;16250;49.932;10.980;2023-11-22T08:12:34;13.10;;;11.80;;
29210;SDS011;16250;49.932;10.980;2023-11-22T08:15:01;11.88;;;10.68;;
29210;SDS011;16250;49.932;10.980;2023-11-22T08:17:28;12.35;;;11.15;;
29210;SDS011;16250;49.932;10.980;2023-11-22T08:19:54;12.20;;;10.90;;
29210;SDS011;16250;49.932;10.980;2023-11-22T08:22:20;12.70;;;10.75;;
29210;SDS011;16250;49.932;10.980;2023-11-22T08:24:46;11.80;;;10.57;;
29210;SDS011;16250;49.932;10.980;2023-11-22T08:27:12;11.80;;;10.60;;
29210;SDS011;16250;49.932;10.980;2023-11-22T08:29:40;11.20;;;10.05;;
29210;SDS011;16250;49.932;10.980;2023-11-22T08:32:05;12.10;;;10.85;;
29210;SDS011;16250;49.932;10.980;2023-11-22T08:34:32;12.43;;;11.23;;
29210;SDS011;16250;49.932;10.980;2023-11-22T08:36:57;11.23;;;10.02;;
29210;SDS011;16250;49.932;10.980;2023-11-22T08:39:24;12.07;;;10.80;;
29210;SDS011;16250;49.932;10.980;2023-11-22T08:41:49;11.70;;;10.50;;
29210;SDS011;16250;49.932;10.980;2023-11-22T08:44:15;12.48;;;11.18;;
29210;SDS011;16250;49.932;10.980;2023-11-22T08:46:41;12.70;;;11.32;;
29210;SDS011;16250;49.932;10.980;2023-11-22T08:49:06;12.30;;;11.07;;
29210;SDS011;16250;49.932;10.980;2023-11-22T08:51:31;12.23;;;11.02;;
29210;SDS011;16250;49.932;10.980;2023-11-22T08:53:58;13.20;;;11.70;;
29210;SDS011;16250;49.932;10.980;2023-11-22T08:56:24;14.50;;;12.40;;
29210;SDS011;16250;49.932;10.980;2023-11-22T08:58:49;13.30;;;11.93;;
29210;SDS011;16250;49.932;10.980;2023-11-22T09:01:15;13.13;;;11.75;;
29210;SDS011;16250;49.932;10.980;2023-11-22T09:03:40;12.50;;;11.20;;
29210;SDS011;16250;49.932;10.980;2023-11-22T09:06:06;12.68;;;11.38;;
29210;SDS011;16250;49.932;10.980;2023-11-22T09:08:32;11.45;;;10.32;;
29210;SDS011;16250;49.932;10.980;2023-11-22T09:10:57;11.10;;;9.90;;
29210;SDS011;16250;49.932;10.980;2023-11-22T09:13:23;11.02;;;9.93;;
29210;SDS011;16250;49.932;10.980;2023-11-22T09:15:49;10.88;;;9.77;;
29210;SDS011;16250;49.932;10.980;2023-11-22T09:18:15;10.75;;;9.60;;
29210;SDS011;16250;49.932;10.980;2023-11-22T09:20:41;10.65;;;9.55;;
29210;SDS011;16250;49.932;10.980;2023-11-22T09:23:09;10.60;;;9.60;;
29210;SDS011;16250;49.932;10.980;2023-11-22T09:25:34;11.35;;;10.15;;
29210;SDS011;16250;49.932;10.980;2023-11-22T09:28:00;10.45;;;9.35;;
29210;SDS011;16250;49.932;10.980;2023-11-22T09:30:30;10.95;;;9.60;;
29210;SDS011;16250;49.932;10.980;2023-11-22T09:33:08;12.80;;;10.90;;
29210;SDS011;16250;49.932;10.980;2023-11-22T09:35:36;11.05;;;9.95;;
29210;SDS011;16250;49.932;10.980;2023-11-22T09:38:03;12.25;;;11.05;;
29210;SDS011;16250;49.932;10.980;2023-11-22T09:40:34;11.23;;;10.13;;
29210;SDS011;16250;49.932;10.980;2023-11-22T09:43:01;10.68;;;9.57;;
29210;SDS011;16250;49.932;10.980;2023-11-22T09:45:27;11.75;;;9.98;;
29210;SDS011;16250;49.932;10.980;2023-11-22T09:47:55;10.18;;;9.18;;
29210;SDS011;16250;49.932;10.980;2023-11-22T09:50:26;10.15;;;9.15;;
29210;SDS011;16250;49.932;10.980;2023-11-22T09:52:55;10.13;;;8.98;;
29210;SDS011;16250;49.932;10.980;2023-11-22T09:55:26;9.07;;;8.18;;
29210;SDS011;16250;49.932;10.980;2023-11-22T09:57:53;9.70;;;8.80;;
29210;SDS011;16250;49.932;10.980;2023-11-22T10:00:19;9.10;;;8.20;;
29210;SDS011;16250;49.932;10.980;2023-11-22T10:02:46;9.85;;;8.85;;
29210;SDS011;16250;49.932;10.980;2023-11-22T10:05:12;9.38;;;8.48;;
29210;SDS011;16250;49.932;10.980;2023-11-22T10:07:37;9.10;;;7.90;;
29210;SDS011;16250;49.932;10.980;2023-11-22T10:10:03;9.95;;;8.55;;
29210;SDS011;16250;49.932;10.980;2023-11-22T10:12:30;9.43;;;8.52;;
29210;SDS011;16250;49.932;10.980;2023-11-22T10:15:07;8.57;;;7.78;;
29210;SDS011;16250;49.932;10.980;2023-11-22T10:17:36;9.77;;;8.77;;
29210;SDS011;16250;49.932;10.980;2023-11-22T10:20:01;10.20;;;8.48;;
29210;SDS011;16250;49.932;10.980;2023-11-22T10:22:27;10.48;;;9.38;;
29210;SDS011;16250;49.932;10.980;2023-11-22T10:24:52;10.75;;;9.25;;
29210;SDS011;16250;49.932;10.980;2023-11-22T10:27:20;14.73;;;13.18;;
29210;SDS011;16250;49.932;10.980;2023-11-22T10:29:45;17.13;;;13.25;;
29210;SDS011;16250;49.932;10.980;2023-11-22T10:32:13;19.35;;;13.57;;
29210;SDS011;16250;49.932;10.980;2023-11-22T10:34:38;15.48;;;12.48;;
29210;SDS011;16250;49.932;10.980;2023-11-22T10:37:04;14.82;;;12.05;;
29210;SDS011;16250;49.932;10.980;2023-11-22T10:39:29;12.85;;;8.95;;
29210;SDS011;16250;49.932;10.980;2023-11-22T10:41:55;9.40;;;8.43;;
29210;SDS011;16250;49.932;10.980;2023-11-22T10:44:20;9.70;;;8.73;;
29210;SDS011;16250;49.932;10.980;2023-11-22T10:46:49;8.90;;;8.00;;
29210;SDS011;16250;49.932;10.980;2023-11-22T10:49:16;9.98;;;8.98;;
29210;SDS011;16250;49.932;10.980;2023-11-22T10:51:41;10.55;;;9.45;;
29210;SDS011;16250;49.932;10.980;2023-11-22T10:54:10;9.18;;;8.25;;
29210;SDS011;16250;49.932;10.980;2023-11-22T10:56:36;9.70;;;8.80;;
29210;SDS011;16250;49.932;10.980;2023-11-22T10:59:06;9.38;;;8.10;;
29210;SDS011;16250;49.932;10.980;2023-11-22T11:01:35;8.00;;;7.30;;
29210;SDS011;16250;49.932;10.980;2023-11-22T11:04:01;9.77;;;8.48;;
29210;SDS011;16250;49.932;10.980;2023-11-22T11:06:32;9.10;;;8.15;;
29210;SDS011;16250;49.932;10.980;2023-11-22T11:09:03;9.48;;;7.68;;
29210;SDS011;16250;49.932;10.980;2023-11-22T11:11:40;8.80;;;8.00;;
29210;SDS011;16250;49.932;10.980;2023-11-22T11:14:06;8.98;;;8.07;;
29210;SDS011;16250;49.932;10.980;2023-11-22T11:16:35;8.43;;;7.63;;
29210;SDS011;16250;49.932;10.980;2023-11-22T11:19:13;8.82;;;7.55;;
29210;SDS011;16250;49.932;10.980;2023-11-22T11:21:39;8.20;;;7.40;;
29210;SDS011;16250;49.932;10.980;2023-11-22T11:24:04;8.35;;;7.20;;
29210;SDS011;16250;49.932;10.980;2023-11-22T11:26:34;7.75;;;6.95;;
29210;SDS011;16250;49.932;10.980;2023-11-22T11:29:02;8.00;;;7.20;;
29210;SDS011;16250;49.932;10.980;2023-11-22T11:31:32;8.40;;;7.00;;
29210;SDS011;16250;49.932;10.980;2023-11-22T11:34:00;9.23;;;7.70;;
29210;SDS011;16250;49.932;10.980;2023-11-22T11:36:29;7.50;;;6.57;;
29210;SDS011;16250;49.932;10.980;2023-11-22T11:38:57;8.40;;;7.35;;
29210;SDS011;16250;49.932;10.980;2023-11-22T11:41:27;8.00;;;7.20;;
29210;SDS011;16250;49.932;10.980;2023-11-22T11:43:53;8.05;;;7.25;;
29210;SDS011;16250;49.932;10.980;2023-11-22T11:46:20;9.18;;;8.15;;
29210;SDS011;16250;49.932;10.980;2023-11-22T11:48:48;8.98;;;8.07;;
29210;SDS011;16250;49.932;10.980;2023-11-22T11:51:18;7.63;;;6.90;;
29210;SDS011;16250;49.932;10.980;2023-11-22T11:53:47;7.40;;;6.70;;
29210;SDS011;16250;49.932;10.980;2023-11-22T11:56:13;7.70;;;7.00;;
29210;SDS011;16250;49.932;10.980;2023-11-22T11:58:40;8.27;;;7.28;;
29210;SDS011;16250;49.932;10.980;2023-11-22T12:01:07;7.78;;;7.05;;
29210;SDS011;16250;49.932;10.980;2023-11-22T12:03:33;8.13;;;7.35;;
29210;SDS011;16250;49.932;10.980;2023-11-22T12:05:58;8.48;;;7.28;;
29210;SDS011;16250;49.932;10.980;2023-11-22T12:08:24;7.82;;;7.03;;
29210;SDS011;16250;49.932;10.980;2023-11-22T12:10:49;8.00;;;6.93;;
29210;SDS011;16250;49.932;10.980;2023-11-22T12:13:20;7.70;;;6.90;;
29210;SDS011;16250;49.932;10.980;2023-11-22T12:15:50;8.73;;;7.93;;
29210;SDS011;16250;49.932;10.980;2023-11-22T12:18:18;8.05;;;7.25;;
29210;SDS011;16250;49.932;10.980;2023-11-22T12:20:53;8.73;;;7.68;;
29210;SDS011;16250;49.932;10.980;2023-11-22T12:23:20;8.55;;;7.30;;
29210;SDS011;16250;49.932;10.980;2023-11-22T12:25:46;8.10;;;7.30;;
29210;SDS011;16250;49.932;10.980;2023-11-22T12:28:12;8.38;;;7.57;;
29210;SDS011;16250;49.932;10.980;2023-11-22T12:30:39;9.15;;;8.25;;
29210;SDS011;16250;49.932;10.980;2023-11-22T12:33:07;9.05;;;8.15;;
29210;SDS011;16250;49.932;10.980;2023-11-22T12:35:33;8.20;;;7.40;;
29210;SDS011;16250;49.932;10.980;2023-11-22T12:37:59;9.80;;;8.55;;
29210;SDS011;16250;49.932;10.980;2023-11-22T12:40:27;9.52;;;8.48;;
29210;SDS011;16250;49.932;10.980;2023-11-22T12:42:58;9.43;;;7.88;;
29210;SDS011;16250;49.932;10.980;2023-11-22T12:45:26;8.63;;;7.72;;
29210;SDS011;16250;49.932;10.980;2023-11-22T12:47:53;8.13;;;7.35;;
29210;SDS011;16250;49.932;10.980;2023-11-22T12:53:13;9.63;;;7.43;;
29210;SDS011;16250;49.932;10.980;2023-11-22T12:58:09;11.25;;;9.65;;
29210;SDS011;16250;49.932;10.980;2023-11-22T13:00:35;9.07;;;7.95;;
29210;SDS011;16250;49.932;10.980;2023-11-22T13:03:01;8.73;;;7.85;;
29210;SDS011;16250;49.932;10.980;2023-11-22T13:05:26;8.48;;;7.70;;
29210;SDS011;16250;49.932;10.980;2023-11-22T13:07:52;9.40;;;8.13;;
29210;SDS011;16250;49.932;10.980;2023-11-22T13:10:18;8.48;;;7.68;;
29210;SDS011;16250;49.932;10.980;2023-11-22T13:12:44;8.20;;;7.35;;
29210;SDS011;16250;49.932;10.980;2023-11-22T13:15:11;8.10;;;7.30;;
29210;SDS011;16250;49.932;10.980;2023-11-22T13:17:37;8.23;;;7.45;;
29210;SDS011;16250;49.932;10.980;2023-11-22T13:20:06;8.68;;;7.85;;
29210;SDS011;16250;49.932;10.980;2023-11-22T13:22:38;8.75;;;7.85;;
29210;SDS011;16250;49.932;10.980;2023-11-22T13:25:05;9.30;;;8.40;;
29210;SDS011;16250;49.932;10.980;2023-11-22T13:27:31;8.80;;;7.93;;
29210;SDS011;16250;49.932;10.980;2023-11-22T13:29:56;9.82;;;8.13;;
29210;SDS011;16250;49.932;10.980;2023-11-22T13:32:23;8.18;;;7.35;;
29210;SDS011;16250;49.932;10.980;2023-11-22T13:34:50;8.23;;;7.43;;
29210;SDS011;16250;49.932;10.980;2023-11-22T13:37:22;8.68;;;7.80;;
29210;SDS011;16250;49.932;10.980;2023-11-22T13:39:48;9.30;;;8.27;;
29210;SDS011;16250;49.932;10.980;2023-11-22T13:42:13;11.02;;;9.93;;
29210;SDS011;16250;49.932;10.980;2023-11-22T13:44:38;10.20;;;9.13;;
29210;SDS011;16250;49.932;10.980;2023-11-22T13:47:04;11.18;;;10.07;;
29210;SDS011;16250;49.932;10.980;2023-11-22T13:49:33;12.88;;;11.00;;
29210;SDS011;16250;49.932;10.980;2023-11-22T13:51:58;14.45;;;11.23;;
29210;SDS011;16250;49.932;10.980;2023-11-22T13:54:24;10.00;;;9.00;;
29210;SDS011;16250;49.932;10.980;2023-11-22T13:56:49;9.05;;;7.88;;
29210;SDS011;16250;49.932;10.980;2023-11-22T13:59:14;9.57;;;8.68;;
29210;SDS011;16250;49.932;10.980;2023-11-22T14:01:40;9.27;;;8.30;;
29210;SDS011;16250;49.932;10.980;2023-11-22T14:04:05;9.15;;;8.23;;
29210;SDS011;16250;49.932;10.980;2023-11-22T14:06:31;10.82;;;9.57;;
29210;SDS011;16250;49.932;10.980;2023-11-22T14:08:56;9.63;;;8.63;;
29210;SDS011;16250;49.932;10.980;2023-11-22T14:11:22;9.13;;;8.23;;
29210;SDS011;16250;49.932;10.980;2023-11-22T14:13:47;11.55;;;9.23;;
29210;SDS011;16250;49.932;10.980;2023-11-22T14:16:12;11.60;;;10.32;;
29210;SDS011;16250;49.932;10.980;2023-11-22T14:18:40;9.13;;;8.23;;
29210;SDS011;16250;49.932;10.980;2023-11-22T14:21:05;9.57;;;8.68;;